Terminal Aerodrome Forecast
Issued by NWS

Current Version | Previous Version | Text Only | Print | Product List | Glossary On
Versions: 1 2 3 4 5 6 7 8 9 10 11 12 13 14 15 16 17 18 19 20 21 22 23
000
FTUS42 KRAH 211124
TAFRWI
TAF
KRWI 211124Z 2112/2212 VRB03KT 2SM BR SCT002 SCT250
      TEMPO 2112/2113 1/2SM FG BKN002
     FM211500 VRB02KT P6SM FEW250
     FM220600 00000KT 4SM BR SCT250
     FM221000 00000KT 1/2SM FG BKN003=

USA.gov is the U.S. government's official web portal to all federal, state and local government web resources and services.